Clio, Alabama
Current Conditions -  °F | °C
As of 9:53 AM on Thursday 23 Oct 2014 (Local Time) from KHEY Reporting Station
Clear Clear  
Wind Chill: 59°   Ceiling: Unl
Heat Index: 59°   Visibility: 10mi
Dew Point: 47°   Wind: 7mph
Humidity: 64%   Direction: 70°ENE
Pressure: 30.12"   Gusts: NA
Location:  31.71°N, 85.61°W
Report Text: KHEY 231453Z AUTO 07006KT 10SM CLR 15/08 A3012 RMK AO2 SLP186 T01500083 50005
Loading
Personal Weather Stations






























Interactive Weather Map
Tropical Storm Tracking
New forecast layout! Learn more

10-Day Weather Forecast

Advertisements
Track Severe Weather on mobile